Time;durP1;ratioP1;P1;durP2;ratioP2;P2;SDS_P1;SDS_P2;PMS_P1;PMS_P2;Temp;Humidity;BMP_temperature;BMP_pressure;BME280_temperature;BME280_humidity;BME280_pressure;Samples;Min_cycle;Max_cycle;Signal;HPM_P1;HPM_P2
2022/06/19 00:01:10;;;;;;;16.27;1.90;;;13.50;99.90;;;;;;5030414;28;20183;-45
2022/06/19 00:03:44;;;;;;;16.23;1.60;;;13.40;99.90;;;;;;5030775;28;20120;-45
2022/06/19 00:06:10;;;;;;;13.45;1.70;;;13.10;99.90;;;;;;5029790;28;20053;-45
2022/06/19 00:08:36;;;;;;;14.25;2.17;;;13.40;99.90;;;;;;5030088;28;20048;-44
2022/06/19 00:11:04;;;;;;;13.80;2.00;;;13.90;99.90;;;;;;5029215;28;20443;-45
2022/06/19 00:13:30;;;;;;;15.82;2.20;;;13.40;99.90;;;;;;5030018;28;20056;-46
2022/06/19 00:15:56;;;;;;;12.48;1.95;;;13.10;99.90;;;;;;5029722;28;20041;-44
2022/06/19 00:18:22;;;;;;;27.05;3.97;;;13.00;99.90;;;;;;5029804;28;20037;-46
2022/06/19 00:20:48;;;;;;;13.50;1.88;;;12.90;99.90;;;;;;5029534;28;20631;-45
2022/06/19 00:23:14;;;;;;;15.40;2.80;;;13.40;99.90;;;;;;5029738;28;20431;-46
2022/06/19 00:25:39;;;;;;;9.85;1.48;;;13.30;99.90;;;;;;5029799;28;20053;-44
2022/06/19 00:28:06;;;;;;;18.00;2.30;;;13.30;99.90;;;;;;5029605;28;20041;-44
2022/06/19 00:30:32;;;;;;;12.15;2.22;;;12.80;99.90;;;;;;5029587;28;20045;-45
2022/06/19 00:32:58;;;;;;;19.20;2.65;;;12.80;99.90;;;;;;5029629;28;20056;-45
2022/06/19 00:35:26;;;;;;;16.48;2.20;;;12.80;99.90;;;;;;5029025;28;20049;-45
2022/06/19 00:37:52;;;;;;;13.25;2.08;;;13.10;99.90;;;;;;5029176;28;20125;-45
2022/06/19 00:40:20;;;;;;;14.23;1.25;;;13.20;99.90;;;;;;5029523;28;20152;-45
2022/06/19 00:42:46;;;;;;;11.32;1.58;;;13.40;99.90;;;;;;5029518;28;20068;-46
2022/06/19 00:45:33;;;;;;;8.50;1.35;;;13.20;99.90;;;;;;5029309;28;20045;-45
2022/06/19 00:48:01;;;;;;;10.10;1.15;;;13.10;99.90;;;;;;5029702;28;20045;-46
2022/06/19 00:50:31;;;;;;;17.75;1.70;;;12.70;99.90;;;;;;5029350;28;20120;-45
2022/06/19 00:52:58;;;;;;;13.85;2.83;;;12.90;99.90;;;;;;5029674;28;20392;-46
2022/06/19 00:55:28;;;;;;;10.30;1.50;;;12.80;99.90;;;;;;5029521;28;20129;-47
2022/06/19 00:58:07;;;;;;;12.13;1.90;;;12.60;99.90;;;;;;5029365;28;20104;-45
2022/06/19 01:00:33;;;;;;;18.38;2.03;;;12.40;99.90;;;;;;5029235;28;20045;-45
2022/06/19 01:03:05;;;;;;;11.48;2.15;;;12.90;99.90;;;;;;5029270;28;20088;-44
2022/06/19 01:05:31;;;;;;;8.13;1.10;;;13.10;99.90;;;;;;5029301;28;20048;-45
2022/06/19 01:08:00;;;;;;;11.20;2.30;;;13.40;99.90;;;;;;5029288;28;20053;-48
2022/06/19 01:10:26;;;;;;;15.05;2.13;;;13.10;99.90;;;;;;5028265;28;20049;-46
2022/06/19 01:12:52;;;;;;;14.00;1.67;;;12.80;99.90;;;;;;5029166;28;20045;-49
2022/06/19 01:15:22;;;;;;;13.13;1.30;;;12.90;99.90;;;;;;5029072;28;20051;-44
2022/06/19 01:17:52;;;;;;;10.40;0.85;;;13.20;99.90;;;;;;5029256;28;20133;-44
2022/06/19 01:20:18;;;;;;;11.68;1.33;;;13.30;99.90;;;;;;5026904;28;20452;-45
2022/06/19 01:22:53;;;;;;;8.98;1.73;;;13.60;99.90;;;;;;5028674;28;20048;-44
2022/06/19 01:25:23;;;;;;;7.70;0.77;;;13.30;99.90;;;;;;5028359;28;20053;-45
2022/06/19 01:30:50;;;;;;;10.75;1.73;;;13.60;99.90;;;;;;5028632;28;20057;-45
2022/06/19 01:33:25;;;;;;;9.13;0.85;;;13.20;99.90;;;;;;5028451;28;20968;-46
2022/06/19 01:35:52;;;;;;;8.15;1.63;;;13.30;99.90;;;;;;5028720;28;20121;-44
2022/06/19 01:38:21;;;;;;;8.77;1.33;;;13.90;99.90;;;;;;5028200;28;20091;-45
2022/06/19 01:40:51;;;;;;;8.60;0.93;;;14.00;99.90;;;;;;5027105;28;20056;-46
2022/06/19 01:43:18;;;;;;;10.20;1.25;;;13.50;99.90;;;;;;5028382;28;20037;-45
2022/06/19 01:45:48;;;;;;;10.23;1.23;;;13.40;99.90;;;;;;5028651;28;20049;-44
2022/06/19 01:48:15;;;;;;;8.73;0.93;;;14.00;99.90;;;;;;5028398;28;20058;-44
2022/06/19 01:50:42;;;;;;;9.00;1.10;;;13.60;99.90;;;;;;5028221;28;20052;-45
2022/06/19 01:53:30;;;;;;;10.48;1.15;;;13.90;99.90;;;;;;5028234;28;20046;-44
2022/06/19 01:55:57;;;;;;;6.13;0.65;;;13.60;99.90;;;;;;5028187;28;20077;-44
2022/06/19 01:58:27;;;;;;;10.13;1.25;;;14.10;99.90;;;;;;5028475;28;20034;-45
2022/06/19 02:00:53;;;;;;;9.15;0.90;;;14.00;99.90;;;;;;5028334;28;20045;-45
2022/06/19 02:03:43;;;;;;;8.93;1.17;;;13.70;99.90;;;;;;5027859;28;20384;-44
2022/06/19 02:06:12;;;;;;;6.82;0.93;;;13.70;99.90;;;;;;5027821;28;20041;-45
2022/06/19 02:08:40;;;;;;;6.32;1.00;;;14.10;99.90;;;;;;5027266;28;20053;-45
2022/06/19 02:11:07;;;;;;;5.75;0.93;;;13.70;99.90;;;;;;5026985;28;20077;-44
2022/06/19 02:13:34;;;;;;;15.25;1.55;;;14.10;99.90;;;;;;5027702;28;20057;-44
2022/06/19 02:16:04;;;;;;;7.82;0.90;;;13.80;99.90;;;;;;5025935;28;20537;-44
2022/06/19 02:18:39;;;;;;;7.97;1.02;;;13.80;99.90;;;;;;5027655;28;20070;-45
2022/06/19 02:21:18;;;;;;;11.65;1.40;;;14.30;99.90;;;;;;5027442;28;20064;-45
2022/06/19 02:23:45;;;;;;;10.50;0.93;;;14.10;99.90;;;;;;5027889;28;20033;-45
2022/06/19 02:26:12;;;;;;;11.55;2.60;;;13.80;99.90;;;;;;5028016;28;20046;-45
2022/06/19 02:28:41;;;;;;;11.15;2.13;;;14.00;99.90;;;;;;5027830;28;20068;-46
2022/06/19 02:31:07;;;;;;;16.13;1.83;;;13.80;99.90;;;;;;5028280;28;20095;-45
2022/06/19 02:33:40;;;;;;;10.18;1.65;;;14.00;99.90;;;;;;5028090;28;20033;-46
2022/06/19 02:36:42;;;;;;;10.65;1.48;;;13.90;99.90;;;;;;5027718;28;20368;-44
2022/06/19 02:39:19;;;;;;;11.43;1.17;;;13.80;99.90;;;;;;5026393;28;20075;-45
2022/06/19 02:41:54;;;;;;;8.82;1.00;;;14.40;99.90;;;;;;5027608;28;20231;-44
2022/06/19 02:44:20;;;;;;;13.43;1.40;;;13.80;99.90;;;;;;5027562;28;20072;-45
2022/06/19 02:46:46;;;;;;;11.10;1.30;;;13.80;99.90;;;;;;5027219;28;20522;-45
2022/06/19 02:49:12;;;;;;;11.02;1.73;;;14.10;99.90;;;;;;5027208;28;20054;-45
2022/06/19 02:51:38;;;;;;;10.55;1.15;;;14.10;99.90;;;;;;5026999;28;20048;-44
2022/06/19 02:54:03;;;;;;;11.25;1.90;;;13.80;99.90;;;;;;5027329;28;20389;-44
2022/06/19 02:56:29;;;;;;;9.77;1.27;;;13.80;99.90;;;;;;5026751;28;20405;-44
2022/06/19 02:58:55;;;;;;;13.55;2.03;;;14.00;99.90;;;;;;5027466;28;20049;-46
2022/06/19 03:01:20;;;;;;;12.50;1.88;;;14.30;99.90;;;;;;5026967;28;20029;-45
2022/06/19 03:03:46;;;;;;;9.88;2.05;;;14.10;99.90;;;;;;5027430;28;20939;-45
2022/06/19 03:06:12;;;;;;;16.60;1.30;;;13.80;99.90;;;;;;5026901;28;20057;-45
2022/06/19 03:08:37;;;;;;;11.35;0.95;;;14.30;99.90;;;;;;5026922;28;20053;-45
2022/06/19 03:11:06;;;;;;;10.88;1.73;;;14.40;99.90;;;;;;5026736;28;20056;-45
2022/06/19 03:13:32;;;;;;;13.15;2.10;;;14.30;99.90;;;;;;5027497;28;20045;-45
2022/06/19 03:16:00;;;;;;;15.55;3.30;;;14.50;99.90;;;;;;5027317;28;20521;-45
2022/06/19 03:18:25;;;;;;;14.80;2.78;;;14.00;99.90;;;;;;5027246;28;20049;-45
2022/06/19 03:20:51;;;;;;;14.43;1.70;;;14.30;99.90;;;;;;5028015;28;20390;-45
2022/06/19 03:23:16;;;;;;;14.73;2.00;;;14.00;99.90;;;;;;5031428;28;20457;-46
2022/06/19 03:25:42;;;;;;;10.80;1.33;;;14.50;99.90;;;;;;5030663;28;20049;-45
2022/06/19 03:28:08;;;;;;;15.82;1.85;;;14.00;99.90;;;;;;5031021;28;20050;-44
2022/06/19 03:30:33;;;;;;;12.70;1.27;;;14.00;99.90;;;;;;5031065;28;20052;-45
2022/06/19 03:32:59;;;;;;;11.05;1.13;;;14.50;99.90;;;;;;5029588;28;20085;-45
2022/06/19 03:35:25;;;;;;;14.93;2.40;;;14.50;99.90;;;;;;5030814;28;20052;-45
2022/06/19 03:37:50;;;;;;;10.77;1.60;;;14.00;99.90;;;;;;5030857;28;20104;-45
2022/06/19 03:40:16;;;;;;;10.23;1.73;;;14.70;99.90;;;;;;5030707;28;20095;-44
2022/06/19 03:42:41;;;;;;;15.13;2.33;;;14.00;99.90;;;;;;5030516;28;20099;-46
2022/06/19 03:45:08;;;;;;;13.05;1.50;;;14.00;99.90;;;;;;5030977;28;20052;-45
2022/06/19 03:47:34;;;;;;;16.80;1.52;;;14.00;99.90;;;;;;5030707;28;20421;-45
2022/06/19 03:50:01;;;;;;;12.80;1.65;;;14.00;99.90;;;;;;5031042;28;20320;-45
2022/06/19 03:52:27;;;;;;;9.27;1.00;;;14.40;99.90;;;;;;5030373;28;20435;-44
2022/06/19 03:54:52;;;;;;;10.57;1.48;;;13.80;99.90;;;;;;5030427;28;20045;-46
2022/06/19 03:57:18;;;;;;;11.73;1.58;;;13.80;99.90;;;;;;5030718;28;20063;-45
2022/06/19 03:59:44;;;;;;;8.68;1.00;;;14.20;99.90;;;;;;5030291;28;20520;-45
2022/06/19 04:02:10;;;;;;;12.05;1.50;;;14.10;99.90;;;;;;5029993;28;20068;-44
2022/06/19 04:04:39;;;;;;;12.75;2.03;;;13.70;99.90;;;;;;5030133;28;20083;-45
2022/06/19 04:07:06;;;;;;;14.85;1.75;;;14.20;99.90;;;;;;5030445;28;20037;-44
2022/06/19 04:09:32;;;;;;;13.48;2.45;;;13.80;99.90;;;;;;5029741;28;20034;-45
2022/06/19 04:11:57;;;;;;;15.32;2.03;;;14.30;99.90;;;;;;5029853;28;20855;-45
2022/06/19 04:14:23;;;;;;;15.95;2.78;;;14.30;99.90;;;;;;5030141;28;20045;-46
2022/06/19 04:16:49;;;;;;;10.82;1.90;;;13.60;99.90;;;;;;5028177;28;20132;-45
2022/06/19 04:19:14;;;;;;;10.70;2.00;;;14.10;99.90;;;;;;5030235;28;20052;-45
2022/06/19 04:21:43;;;;;;;10.55;0.90;;;13.40;99.90;;;;;;5029509;28;20138;-45
2022/06/19 04:24:10;;;;;;;15.70;1.58;;;13.40;99.90;;;;;;5029962;28;20440;-45
2022/06/19 04:26:38;;;;;;;6.38;0.88;;;13.70;99.90;;;;;;5029267;28;20045;-45
2022/06/19 04:29:04;;;;;;;8.52;0.80;;;12.90;98.70;;;;;;5029599;28;20045;-45
2022/06/19 04:31:31;;;;;;;7.50;0.75;;;13.10;97.80;;;;;;5029063;28;20429;-45
2022/06/19 04:33:57;;;;;;;7.63;0.98;;;12.90;97.40;;;;;;5029424;28;20045;-46
2022/06/19 04:36:25;;;;;;;9.45;0.82;;;12.90;96.70;;;;;;5029144;28;20574;-44
2022/06/19 04:38:54;;;;;;;11.77;1.00;;;13.00;96.60;;;;;;5029242;28;20042;-45
2022/06/19 04:41:26;;;;;;;8.38;0.80;;;13.00;96.50;;;;;;5029217;28;20047;-46
2022/06/19 04:43:52;;;;;;;;;;;13.10;96.40;;;;;;5028153;28;20077;-45
2022/06/19 04:46:19;;;;;;;10.85;1.73;;;13.30;96.90;;;;;;5029477;28;19921;-45
2022/06/19 04:48:46;;;;;;;9.00;1.58;;;13.40;96.90;;;;;;5029229;28;20161;-45
2022/06/19 04:51:12;;;;;;;9.68;1.15;;;13.40;97.20;;;;;;5029567;28;20095;-45
2022/06/19 04:53:39;;;;;;;9.95;1.40;;;13.40;97.40;;;;;;5029464;28;20076;-46
2022/06/19 04:56:06;;;;;;;11.38;1.00;;;13.50;97.30;;;;;;5029666;28;20049;-45
2022/06/19 04:58:32;;;;;;;5.80;0.75;;;13.70;97.00;;;;;;5029232;28;20046;-46
2022/06/19 05:01:00;;;;;;;10.05;0.93;;;14.00;96.60;;;;;;5029223;28;20115;-46
2022/06/19 05:03:26;;;;;;;8.07;1.02;;;14.40;96.40;;;;;;5029063;28;20049;-44
2022/06/19 05:05:53;;;;;;;11.50;0.93;;;14.30;96.40;;;;;;5028934;28;20060;-45
2022/06/19 05:08:19;;;;;;;8.52;1.20;;;14.50;97.00;;;;;;5028705;28;20077;-44
2022/06/19 05:10:45;;;;;;;10.38;1.05;;;14.70;96.60;;;;;;5028392;28;20050;-46
2022/06/19 05:13:19;;;;;;;8.32;0.80;;;14.90;96.50;;;;;;5029105;28;20055;-48
2022/06/19 05:15:46;;;;;;;5.93;1.05;;;14.70;96.50;;;;;;5028652;28;20050;-46
2022/06/19 05:18:13;;;;;;;10.07;1.27;;;14.70;96.30;;;;;;5028707;28;20100;-45
2022/06/19 05:20:39;;;;;;;8.98;1.08;;;14.70;96.50;;;;;;5028441;28;20068;-45
2022/06/19 05:23:06;;;;;;;7.35;1.17;;;14.90;96.50;;;;;;5028628;28;20049;-45
2022/06/19 05:25:32;;;;;;;10.73;1.40;;;14.80;96.60;;;;;;5028730;28;20057;-46
2022/06/19 05:27:58;;;;;;;8.82;1.55;;;14.90;96.60;;;;;;5028576;28;20049;-45
2022/06/19 05:30:24;;;;;;;7.85;0.98;;;15.10;97.00;;;;;;5028561;28;20056;-45
2022/06/19 05:32:49;;;;;;;11.00;1.27;;;14.90;97.20;;;;;;5028345;28;20091;-46
2022/06/19 05:35:15;;;;;;;16.15;1.30;;;14.90;97.30;;;;;;5028876;28;20053;-45
2022/06/19 05:37:41;;;;;;;13.93;1.80;;;14.90;97.40;;;;;;5028667;28;20041;-45
2022/06/19 05:40:07;;;;;;;11.80;1.52;;;14.90;98.00;;;;;;5028588;28;20566;-46
2022/06/19 05:42:33;;;;;;;11.35;1.90;;;15.00;98.30;;;;;;5028324;28;20481;-46
2022/06/19 05:44:59;;;;;;;10.20;1.90;;;15.20;98.30;;;;;;5027196;28;20171;-46
2022/06/19 05:47:24;;;;;;;10.82;1.67;;;16.00;99.90;;;;;;5028444;28;20402;-45
2022/06/19 05:49:50;;;;;;;15.10;1.73;;;15.80;99.90;;;;;;5028151;28;20045;-45
2022/06/19 05:52:24;;;;;;;12.52;1.60;;;16.20;99.40;;;;;;5028454;28;20037;-47
2022/06/19 05:54:51;;;;;;;19.40;2.35;;;16.30;99.30;;;;;;5027767;28;20049;-45
2022/06/19 05:57:17;;;;;;;13.70;2.70;;;15.90;99.10;;;;;;5028046;28;20212;-45
2022/06/19 05:59:42;;;;;;;10.93;1.30;;;15.80;99.10;;;;;;5027788;28;20120;-46
2022/06/19 06:02:12;;;;;;;11.23;1.20;;;15.80;99.20;;;;;;5028380;28;20048;-46
2022/06/19 06:04:38;;;;;;;11.98;1.27;;;16.20;99.80;;;;;;5028096;28;20041;-46
2022/06/19 06:07:06;;;;;;;10.88;1.40;;;15.90;99.80;;;;;;5027946;28;20064;-48
2022/06/19 06:09:33;;;;;;;11.00;2.20;;;15.90;99.90;;;;;;5027542;28;20187;-45
2022/06/19 06:11:58;;;;;;;11.05;1.33;;;16.00;99.90;;;;;;5027831;28;20253;-47
2022/06/19 06:14:24;;;;;;;14.68;2.45;;;16.00;99.50;;;;;;5027864;28;20378;-45
2022/06/19 06:16:50;;;;;;;15.30;3.25;;;16.10;98.80;;;;;;5027879;28;20416;-46
2022/06/19 06:19:15;;;;;;;15.82;1.80;;;16.10;98.00;;;;;;5027994;28;20500;-45
2022/06/19 06:21:42;;;;;;;16.60;1.95;;;16.00;97.60;;;;;;5027493;28;20053;-46
2022/06/19 06:24:08;;;;;;;10.48;1.90;;;16.00;97.60;;;;;;5027550;28;20371;-45
2022/06/19 06:26:34;;;;;;;18.52;1.90;;;16.00;97.90;;;;;;5027789;28;20045;-45
2022/06/19 06:29:00;;;;;;;10.85;1.58;;;15.90;97.60;;;;;;5027449;28;20053;-45
2022/06/19 06:31:27;;;;;;;11.10;1.65;;;15.80;97.90;;;;;;5009861;28;20053;-45
2022/06/19 06:33:53;;;;;;;8.55;1.15;;;16.10;98.60;;;;;;5027553;28;20079;-45
2022/06/19 06:36:19;;;;;;;11.05;1.20;;;15.70;98.20;;;;;;5027878;28;20481;-46
2022/06/19 06:38:44;;;;;;;12.73;2.05;;;15.50;98.10;;;;;;5027448;28;20385;-45
2022/06/19 06:41:12;;;;;;;14.18;1.67;;;15.40;98.40;;;;;;5027508;28;20041;-45
2022/06/19 06:43:40;;;;;;;10.90;2.22;;;15.40;98.60;;;;;;5027850;28;20084;-45
2022/06/19 06:46:08;;;;;;;10.80;1.35;;;15.30;98.50;;;;;;5027778;28;20052;-46
2022/06/19 06:48:34;;;;;;;11.07;1.73;;;15.70;98.60;;;;;;5027709;28;20084;-46
2022/06/19 06:51:03;;;;;;;8.23;1.30;;;15.20;98.40;;;;;;5027613;28;20167;-45
2022/06/19 06:53:29;;;;;;;12.63;1.77;;;15.30;98.50;;;;;;5027341;28;20049;-45
2022/06/19 06:55:56;;;;;;;12.75;2.92;;;15.50;98.60;;;;;;5026654;28;20056;-48
2022/06/19 06:58:22;;;;;;;12.48;1.58;;;15.20;98.50;;;;;;5025981;28;20057;-47
2022/06/19 07:00:47;;;;;;;11.48;1.25;;;15.30;98.40;;;;;;5026856;28;20049;-45
2022/06/19 07:03:13;;;;;;;10.80;1.08;;;15.40;97.90;;;;;;5027405;28;20340;-46
2022/06/19 07:05:39;;;;;;;8.38;1.15;;;15.30;97.50;;;;;;5027220;28;20639;-45
2022/06/19 07:08:05;;;;;;;11.75;1.77;;;15.20;97.60;;;;;;5026880;28;20080;-46
2022/06/19 07:10:31;;;;;;;11.43;2.08;;;15.30;97.60;;;;;;5026595;28;20125;-45
2022/06/19 07:12:57;;;;;;;11.73;2.28;;;15.60;97.90;;;;;;5027182;28;20048;-45
2022/06/19 07:15:24;;;;;;;11.13;1.10;;;15.60;97.90;;;;;;5027195;28;20049;-45
2022/06/19 07:17:49;;;;;;;11.73;2.03;;;15.70;98.30;;;;;;5027375;28;20400;-45
2022/06/19 07:20:16;;;;;;;10.40;1.75;;;15.20;98.10;;;;;;5026572;28;20056;-45
2022/06/19 07:22:41;;;;;;;10.60;1.08;;;15.30;98.20;;;;;;5027213;28;20077;-46
2022/06/19 07:25:08;;;;;;;15.32;1.63;;;15.20;98.20;;;;;;5024865;28;20537;-47
2022/06/19 07:27:34;;;;;;;9.45;1.30;;;15.20;98.30;;;;;;5026003;28;20037;-45
2022/06/19 07:30:01;;;;;;;11.25;1.42;;;15.70;98.80;;;;;;5026356;28;20048;-45
2022/06/19 07:32:27;;;;;;;9.63;1.40;;;15.40;99.00;;;;;;5027285;28;20401;-46
2022/06/19 07:34:52;;;;;;;8.13;1.35;;;15.50;98.80;;;;;;5026374;28;20044;-45
2022/06/19 07:37:18;;;;;;;10.30;1.58;;;15.70;98.60;;;;;;5026851;28;20049;-47
2022/06/19 07:39:44;;;;;;;14.85;1.83;;;15.80;98.20;;;;;;5026592;28;20311;-45
2022/06/19 07:42:10;;;;;;;11.23;0.93;;;15.80;98.20;;;;;;5027217;28;20052;-47
2022/06/19 07:44:36;;;;;;;13.02;1.33;;;15.90;98.20;;;;;;5027321;28;20046;-45
2022/06/19 07:50:13;;;;;;;11.32;1.30;;;15.90;98.30;;;;;;5026774;28;20115;-46
2022/06/19 07:52:41;;;;;;;11.88;1.40;;;15.90;97.40;;;;;;5026978;28;20124;-45
2022/06/19 07:55:09;;;;;;;8.02;1.52;;;15.90;98.10;;;;;;5026304;28;20041;-46
2022/06/19 07:57:35;;;;;;;12.07;1.38;;;15.90;98.00;;;;;;5026590;28;20131;-45
2022/06/19 08:00:01;;;;;;;11.90;1.88;;;16.20;98.00;;;;;;5026356;28;20037;-46
2022/06/19 08:02:27;;;;;;;8.63;0.95;;;15.70;97.80;;;;;;5026558;28;20033;-46
2022/06/19 08:04:53;;;;;;;8.98;0.70;;;15.60;98.10;;;;;;5026795;28;20048;-45
2022/06/19 08:07:19;;;;;;;9.90;1.65;;;15.50;98.20;;;;;;5028435;28;20045;-45
2022/06/19 08:09:46;;;;;;;15.25;1.38;;;15.60;98.50;;;;;;5029404;28;20452;-46
2022/06/19 08:12:12;;;;;;;11.70;1.25;;;15.40;98.70;;;;;;5029897;28;20053;-45
2022/06/19 08:14:38;;;;;;;11.52;1.63;;;15.90;99.10;;;;;;5030224;28;20041;-47
2022/06/19 08:17:04;;;;;;;12.68;2.00;;;15.30;99.00;;;;;;5028378;28;20057;-47
2022/06/19 08:19:30;;;;;;;13.35;1.40;;;15.20;99.10;;;;;;5029903;28;20576;-45
2022/06/19 08:21:56;;;;;;;14.13;1.73;;;15.30;99.40;;;;;;5029419;28;20061;-47
2022/06/19 08:24:22;;;;;;;9.32;1.65;;;15.20;99.40;;;;;;5029808;28;20043;-46
2022/06/19 08:26:51;;;;;;;14.55;1.08;;;15.10;99.60;;;;;;5029758;28;20055;-46
2022/06/19 08:29:17;;;;;;;10.70;1.45;;;15.40;99.90;;;;;;5029580;28;20045;-45
2022/06/19 08:31:43;;;;;;;8.25;1.40;;;15.00;99.90;;;;;;5029442;28;20034;-47
2022/06/19 08:34:09;;;;;;;6.18;0.95;;;15.10;99.90;;;;;;5029760;28;20512;-47
2022/06/19 08:36:36;;;;;;;10.77;1.30;;;15.10;99.90;;;;;;5029941;28;20454;-45
2022/06/19 08:39:08;;;;;;;14.68;1.17;;;15.20;99.90;;;;;;5029212;28;20052;-46
2022/06/19 08:41:46;;;;;;;;;;;15.30;99.90;;;;;;5030518;28;20052;-46
2022/06/19 08:44:17;;;;;;;9.15;0.77;;;15.40;99.50;;;;;;5029497;28;20395;-46
2022/06/19 08:46:49;;;;;;;10.95;2.13;;;15.50;99.90;;;;;;5029528;28;20060;-46
2022/06/19 08:49:15;;;;;;;;;;;15.60;99.90;;;;;;5029859;28;20049;-46
2022/06/19 08:51:51;;;;;;;10.00;1.20;;;15.80;99.90;;;;;;5029420;28;19931;-46
2022/06/19 08:54:48;;;;;;;13.73;1.50;;;16.20;99.00;;;;;;5028480;28;20045;-45
2022/06/19 08:57:44;;;;;;;9.90;1.30;;;15.90;99.80;;;;;;5028948;28;20424;-47
2022/06/19 09:00:19;;;;;;;8.50;1.48;;;16.20;98.10;;;;;;5029022;28;20757;-46
2022/06/19 09:03:09;;;;;;;13.60;1.40;;;16.40;98.60;;;;;;5029138;28;20096;-46
2022/06/19 09:06:13;;;;;;;14.73;2.58;;;16.40;97.40;;;;;;5030242;28;20037;-50
2022/06/19 09:09:12;;;;;;;9.52;1.20;;;16.50;97.90;;;;;;5028795;28;20063;-49
2022/06/19 09:11:54;;;;;;;10.57;1.85;;;16.60;97.20;;;;;;5028497;28;20072;-45
2022/06/19 09:14:33;;;;;;;11.70;1.95;;;16.70;97.40;;;;;;5028580;28;20049;-45
2022/06/19 09:17:19;;;;;;;8.23;1.20;;;16.60;97.80;;;;;;5028122;28;20084;-47
2022/06/19 09:19:52;;;;;;;14.07;1.80;;;16.70;97.60;;;;;;5027364;28;20052;-45
2022/06/19 09:22:39;;;;;;;10.27;1.25;;;16.80;97.50;;;;;;5027624;28;20049;-46
2022/06/19 09:25:11;;;;;;;12.98;1.52;;;17.40;97.70;;;;;;5026390;28;20045;-45
2022/06/19 09:27:53;;;;;;;10.82;1.75;;;17.10;97.10;;;;;;5028707;28;20689;-45
2022/06/19 09:30:27;;;;;;;7.95;0.95;;;16.90;96.10;;;;;;5028027;28;20496;-45
2022/06/19 09:32:59;;;;;;;9.20;1.08;;;17.30;96.50;;;;;;5027927;28;20045;-45
2022/06/19 09:35:44;;;;;;;10.27;1.90;;;17.20;95.90;;;;;;5027446;28;20519;-45
2022/06/19 09:38:39;;;;;;;4.68;1.02;;;17.30;95.00;;;;;;5015266;28;20268;-46
2022/06/19 09:41:12;;;;;;;11.75;1.90;;;17.30;94.90;;;;;;5024767;28;20049;-46
2022/06/19 09:43:48;;;;;;;9.32;1.38;;;17.40;94.70;;;;;;5024900;28;20045;-46
2022/06/19 09:46:19;;;;;;;6.90;0.93;;;17.40;94.50;;;;;;5024763;28;20048;-47
2022/06/19 09:49:13;;;;;;;8.27;1.15;;;17.40;94.30;;;;;;5024940;28;20045;-46
2022/06/19 09:51:51;;;;;;;9.80;1.30;;;17.40;94.10;;;;;;5025738;28;20115;-36
2022/06/19 09:54:43;;;;;;;5.82;0.82;;;17.40;94.10;;;;;;5025022;28;20045;-36
2022/06/19 09:57:18;;;;;;;11.88;1.40;;;17.40;95.70;;;;;;5024745;28;20084;-36
2022/06/19 10:00:32;;;;;;;8.95;0.90;;;17.50;95.70;;;;;;5027939;28;20045;-36
2022/06/19 10:03:29;;;;;;;9.52;1.30;;;17.80;96.10;;;;;;5026970;28;20430;-36
2022/06/19 10:06:04;;;;;;;10.45;1.27;;;18.30;97.30;;;;;;5028104;28;20619;-36
2022/06/19 10:08:38;;;;;;;10.82;1.85;;;18.60;96.20;;;;;;5027260;28;20099;-36
2022/06/19 10:11:10;;;;;;;8.25;1.17;;;18.80;96.20;;;;;;5025834;28;20045;-36
2022/06/19 10:13:56;;;;;;;6.88;1.30;;;19.00;94.70;;;;;;5028091;28;20042;-36
2022/06/19 10:16:34;;;;;;;8.07;0.77;;;19.10;93.90;;;;;;5027489;28;20077;-36
2022/06/19 10:19:09;;;;;;;6.47;0.65;;;19.10;92.90;;;;;;5027772;28;20040;-36
2022/06/19 10:24:39;;;;;;;8.10;0.98;;;18.70;92.10;;;;;;5027431;28;20397;-36
2022/06/19 10:27:25;;;;;;;7.05;0.70;;;18.50;92.20;;;;;;5027626;28;20088;-36
2022/06/19 10:30:02;;;;;;;6.07;0.80;;;18.30;91.90;;;;;;5026697;28;20097;-36
2022/06/19 10:33:02;;;;;;;6.80;1.40;;;18.30;92.10;;;;;;5027202;28;20354;-36
2022/06/19 10:35:41;;;;;;;5.57;0.75;;;18.20;92.20;;;;;;5026153;28;20084;-36
2022/06/19 10:38:30;;;;;;;4.03;0.50;;;18.20;92.10;;;;;;5026789;28;20041;-36
2022/06/19 10:44:28;;;;;;;2.67;0.40;;;18.20;91.60;;;;;;5027211;28;20372;-36
2022/06/19 10:47:09;;;;;;;8.23;1.25;;;18.40;91.30;;;;;;5027113;28;20212;-36
2022/06/19 10:50:01;;;;;;;4.95;0.43;;;18.60;91.40;;;;;;5026664;28;20124;-36
2022/06/19 10:52:37;;;;;;;6.53;0.68;;;18.80;90.80;;;;;;5026958;28;20140;-36
2022/06/19 10:55:40;;;;;;;5.50;0.68;;;19.10;90.20;;;;;;5026703;28;20045;-36
2022/06/19 10:58:19;;;;;;;6.15;0.52;;;19.20;90.20;;;;;;5026930;28;20033;-37
2022/06/19 11:00:49;;;;;;;8.85;0.95;;;19.30;89.80;;;;;;5025589;28;20049;-36
2022/06/19 11:06:40;;;;;;;5.82;1.00;;;19.40;86.50;;;;;;5026745;28;20171;-36
2022/06/19 11:09:44;;;;;;;4.63;0.85;;;19.10;86.10;;;;;;5026073;28;20049;-36
2022/06/19 11:12:29;;;;;;;8.63;0.60;;;19.10;86.10;;;;;;5025636;28;20532;-36
2022/06/19 11:14:57;;;;;;;7.82;1.20;;;19.00;85.50;;;;;;5026967;28;20053;-36
2022/06/19 11:17:38;;;;;;;7.80;0.68;;;18.90;86.10;;;;;;5026767;28;20436;-36
2022/06/19 11:20:16;;;;;;;3.58;0.38;;;18.90;84.90;;;;;;5027108;28;20041;-36
2022/06/19 11:22:47;;;;;;;5.97;0.52;;;18.90;84.10;;;;;;5026274;28;20099;-36
2022/06/19 11:25:38;;;;;;;2.00;0.20;;;18.80;84.80;;;;;;5026156;28;20041;-36
2022/06/19 11:28:09;;;;;;;5.97;0.73;;;18.70;83.10;;;;;;5026918;28;20080;-35
2022/06/19 11:30:51;;;;;;;3.92;0.32;;;18.60;84.90;;;;;;5026899;28;20072;-36
2022/06/19 11:33:20;;;;;;;3.88;0.47;;;18.60;85.30;;;;;;5026645;28;20038;-42
2022/06/19 11:35:50;;;;;;;2.83;0.45;;;18.50;85.20;;;;;;5021624;28;20045;-39
2022/06/19 11:38:32;;;;;;;5.45;0.52;;;18.30;84.60;;;;;;5020031;28;20045;-42
2022/06/19 11:40:58;;;;;;;4.10;0.63;;;18.30;85.00;;;;;;5023275;28;20052;-40
2022/06/19 11:43:31;;;;;;;3.95;0.40;;;18.20;85.00;;;;;;5027471;28;20041;-40
2022/06/19 11:46:01;;;;;;;3.08;0.22;;;18.20;84.40;;;;;;5027621;28;20590;-40
2022/06/19 11:48:27;;;;;;;3.70;0.28;;;18.20;84.40;;;;;;5029007;28;20128;-41
2022/06/19 11:50:54;;;;;;;3.10;0.20;;;18.10;84.30;;;;;;5028479;28;20548;-43
2022/06/19 11:53:21;;;;;;;3.42;0.20;;;18.20;85.00;;;;;;5029050;28;20037;-40
2022/06/19 11:56:11;;;;;;;3.67;0.30;;;18.20;85.00;;;;;;5029491;28;20045;-42
2022/06/19 11:58:51;;;;;;;2.50;0.50;;;18.30;84.20;;;;;;5029010;28;20045;-43
2022/06/19 12:01:23;;;;;;;2.50;0.38;;;18.50;84.30;;;;;;5043420;28;20072;-41
2022/06/19 12:03:55;;;;;;;;;;;18.70;83.70;;;;;;5028875;28;20572;-40
2022/06/19 12:06:40;;;;;;;7.43;0.52;;;18.90;83.20;;;;;;5026698;28;19928;-40
2022/06/19 12:09:16;;;;;;;4.30;0.32;;;18.90;82.10;;;;;;5029972;28;20045;-37
2022/06/19 12:12:07;;;;;;;2.13;0.10;;;18.90;82.00;;;;;;5028658;28;20049;-37
2022/06/19 12:14:54;;;;;;;3.53;0.37;;;19.10;82.40;;;;;;5029135;28;20057;-37
2022/06/19 12:17:38;;;;;;;2.75;0.55;;;19.20;81.90;;;;;;5029724;28;20077;-36
2022/06/19 12:20:07;;;;;;;4.13;0.85;;;19.20;81.70;;;;;;5029846;28;20033;-37
2022/06/19 12:22:41;;;;;;;1.73;0.20;;;19.20;81.30;;;;;;5027732;28;20068;-38
2022/06/19 12:25:23;;;;;;;6.75;0.35;;;19.20;80.50;;;;;;5029690;28;20049;-37
2022/06/19 12:27:56;;;;;;;4.53;0.45;;;19.00;81.10;;;;;;5029748;28;20041;-37
2022/06/19 12:30:33;;;;;;;4.25;0.30;;;19.00;81.70;;;;;;5029511;28;20046;-37
2022/06/19 12:33:01;;;;;;;3.30;0.20;;;18.90;81.60;;;;;;5029420;28;20077;-38
2022/06/19 12:35:32;;;;;;;1.88;0.20;;;19.10;82.40;;;;;;5029398;28;20056;-37
2022/06/19 12:37:59;;;;;;;4.60;0.32;;;19.10;82.80;;;;;;5029437;28;20053;-38
2022/06/19 12:40:34;;;;;;;2.35;0.25;;;19.40;82.90;;;;;;5029400;28;20034;-37
2022/06/19 12:43:18;;;;;;;2.63;0.20;;;19.80;82.20;;;;;;5029357;28;20084;-38
2022/06/19 12:45:58;;;;;;;3.05;0.25;;;20.40;80.60;;;;;;5011088;28;20057;-37
2022/06/19 12:48:23;;;;;;;2.33;0.30;;;20.90;80.00;;;;;;5029122;28;20045;-38
2022/06/19 12:51:01;;;;;;;4.53;0.20;;;21.20;78.30;;;;;;5029403;28;20037;-38
2022/06/19 12:53:54;;;;;;;2.97;0.20;;;21.20;76.50;;;;;;5028940;28;20064;-37
2022/06/19 12:56:37;;;;;;;1.63;0.40;;;21.20;76.30;;;;;;5029210;28;20484;-37
2022/06/19 12:59:41;;;;;;;1.48;0.10;;;21.10;76.50;;;;;;5029093;28;20049;-38
2022/06/19 13:02:25;;;;;;;1.60;0.43;;;21.00;76.40;;;;;;5029302;28;20042;-37
2022/06/19 13:05:12;;;;;;;1.42;0.15;;;21.00;76.30;;;;;;5029313;28;20047;-37
2022/06/19 13:08:00;;;;;;;1.17;0.10;;;20.70;75.60;;;;;;5029044;28;20875;-37
2022/06/19 13:11:05;;;;;;;1.52;0.30;;;20.40;75.90;;;;;;5028419;28;20037;-37
2022/06/19 13:13:47;;;;;;;3.67;0.20;;;20.10;77.00;;;;;;5028748;28;20033;-38
2022/06/19 13:16:42;;;;;;;2.63;0.30;;;19.80;78.10;;;;;;5028736;28;20467;-37
2022/06/19 13:19:23;;;;;;;3.70;0.40;;;19.50;79.60;;;;;;5029035;28;20049;-37
2022/06/19 13:22:01;;;;;;;3.03;0.20;;;19.30;80.80;;;;;;5028444;28;20136;-37